SVYA4: Illinois River nr Savoy AR

                                SHEF ID:       SVYA4     Illinois River at Savoy, AR
STATION TYPE:

STAGE RIV-FLOW BAT-LOAD
ft cfs volt
Ccp-Rev Ccp-Rev Ccp-Rev
(America/Chicago)
04/29 00:00 9.26 3133 12.65
04/29 01:00 8.69 2791 12.65
04/29 02:00 7.90 2332 12.57
04/29 03:00 7.23 1963 12.57
04/29 04:00 6.75 1720 12.57
04/29 05:00 6.39 1550 12.57
04/29 06:00 6.15 1440 12.57
04/29 07:00 5.93 1308 12.57
04/29 08:00 5.75 1205 12.57
04/29 09:00 5.62 1133 12.73
04/29 10:00 5.49 1064 12.97
04/29 11:00 5.39 1012 12.81
04/29 12:00 5.27 952 14.00
04/29 13:00 5.19 913 13.92
04/29 14:00 5.12 879 13.44
04/29 15:00 5.04 842 13.68
04/29 16:00 4.97 809 13.53
04/29 17:00 4.89 771 13.60
04/29 18:00 4.81 734 13.37
04/29 19:00 4.75 707 13.37
04/29 20:00 4.68 676 13.05
04/29 21:00 4.61 646 12.81
04/29 22:00 4.55 621 12.81
04/29 23:00 4.49 596 12.81
Data processed at Thu 30Apr2026 04:14 GMT

NOTICE: If you are parsing this page

Please convert to using our Data API. Starting early 2026 we will be migrating to: https://water.usace.army.mil with modern pages rendered in JavaScript. When this migration completes you will no longer be able to scrape this page! CWMSDataAPI (CDA)

Timeseries IDs (TSIDs)

TSIDs used from left to right in the data table
SAVO.Stage.Inst.1Hour.0.Ccp-Rev
SAVO.Flow.Inst.1Hour.0.Ccp-Rev
SAVO.Volt-Battery Load.Inst.1Hour.0.Ccp-Rev

                            

All information presented herein is the property of the government of the United States of America and may be revised or deleted at any time without prior notice. Dissemination of this information without the expressed written consent of the Public Affairs Office, Tulsa District U.S. Army Corps of Engineers is strictly prohibited. These data are gathered electronically and, as presented, have NOT undergone any form of quality control. These data are NOT guaranteed to be valid or correct.